Time;durP1;ratioP1;P1;durP2;ratioP2;P2;SDS_P1;SDS_P2;PMS_P1;PMS_P2;Temp;Humidity;BMP_temperature;BMP_pressure;BME280_temperature;BME280_humidity;BME280_pressure;Samples;Min_cycle;Max_cycle;Signal;HPM_P1;HPM_P2
2023/03/01 00:01:14;;;;;;;27.70;16.55;;;;;;;-0.62;100.00;103122.28;10220046;28;20585;-67
2023/03/01 00:06:11;;;;;;;28.52;16.02;;;;;;;-0.52;100.00;103124.72;10216406;28;20046;-67
2023/03/01 00:11:15;;;;;;;26.58;16.45;;;;;;;-0.55;100.00;103119.72;10216209;28;20104;-67
2023/03/01 00:16:26;;;;;;;25.00;15.50;;;;;;;-0.71;100.00;103124.22;10210403;28;20569;-68
2023/03/01 00:21:24;;;;;;;29.88;15.93;;;;;;;-0.62;100.00;103105.34;10215575;28;20081;-68
2023/03/01 00:26:23;;;;;;;32.42;18.17;;;;;;;-0.72;100.00;103106.44;10213856;28;20069;-67
2023/03/01 00:31:22;;;;;;;26.35;15.48;;;;;;;-0.68;100.00;103107.72;10216985;28;20065;-66
2023/03/01 00:36:19;;;;;;;25.15;15.70;;;;;;;-0.69;100.00;103111.44;10212020;28;20507;-66
2023/03/01 00:41:17;;;;;;;25.88;15.27;;;;;;;-0.70;100.00;103109.75;10224298;28;20157;-67
2023/03/01 00:46:16;;;;;;;29.23;15.65;;;;;;;-0.68;100.00;103110.41;10217639;28;20049;-67
2023/03/01 00:51:16;;;;;;;26.48;14.63;;;;;;;-0.55;100.00;103109.78;10222757;28;20056;-67
2023/03/01 00:56:14;;;;;;;26.13;15.15;;;;;;;-0.34;100.00;103108.22;10215204;28;20153;-67
2023/03/01 01:01:23;;;;;;;25.25;15.88;;;;;;;-0.41;100.00;103113.50;10212188;28;20050;-67
2023/03/01 01:06:24;;;;;;;34.58;15.30;;;;;;;-0.49;100.00;103110.88;10208980;28;20050;-67
2023/03/01 01:11:24;;;;;;;26.33;14.88;;;;;;;-0.61;100.00;103107.00;10214289;28;20107;-67
2023/03/01 01:16:22;;;;;;;27.60;16.77;;;;;;;-0.62;100.00;103098.13;10209567;28;20055;-66
2023/03/01 01:21:21;;;;;;;26.85;16.40;;;;;;;-0.62;100.00;103100.78;10210011;28;20050;-66
2023/03/01 01:26:23;;;;;;;25.77;15.25;;;;;;;-0.46;100.00;103094.41;10216554;28;20073;-68
2023/03/01 01:31:23;;;;;;;23.58;16.27;;;;;;;-0.30;100.00;103094.22;10220578;28;20077;-66
2023/03/01 01:36:20;;;;;;;27.65;15.35;;;;;;;-0.34;100.00;103082.16;10213623;28;20522;-66
2023/03/01 01:41:18;;;;;;;26.85;15.88;;;;;;;-0.33;100.00;103078.44;10210283;28;20107;-66
2023/03/01 01:46:29;;;;;;;27.58;16.38;;;;;;;-0.46;100.00;103083.66;10211600;28;20050;-65
2023/03/01 01:51:38;;;;;;;33.22;17.83;;;;;;;-0.35;100.00;103068.91;10230274;28;20140;-68
2023/03/01 01:56:39;;;;;;;29.02;15.25;;;;;;;-0.29;100.00;103068.97;10214026;28;21498;-68
2023/03/01 02:01:35;;;;;;;29.77;16.00;;;;;;;-0.27;100.00;103066.94;10211188;28;20470;-67
2023/03/01 02:06:37;;;;;;;25.83;15.05;;;;;;;-0.19;100.00;103059.78;10213722;28;20045;-67
2023/03/01 02:11:34;;;;;;;18.13;12.70;;;;;;;-0.22;100.00;103058.31;10218963;28;20041;-68
2023/03/01 02:16:30;;;;;;;25.92;15.25;;;;;;;-0.22;100.00;103047.56;10202900;28;20804;-68
2023/03/01 02:21:49;;;;;;;27.75;15.88;;;;;;;-0.13;100.00;103045.59;10216238;28;20422;-66
2023/03/01 02:26:50;;;;;;;28.90;15.85;;;;;;;-0.25;100.00;103043.41;10226439;28;20073;-66
2023/03/01 02:31:47;;;;;;;27.48;14.88;;;;;;;-0.24;100.00;103042.38;10227552;28;20132;-66
2023/03/01 02:36:50;;;;;;;27.58;14.80;;;;;;;-0.18;100.00;103042.66;10226436;28;20077;-66
2023/03/01 02:41:51;;;;;;;23.90;15.00;;;;;;;-0.01;100.00;103041.41;10227997;28;20049;-65
2023/03/01 02:46:50;;;;;;;25.50;14.68;;;;;;;-0.01;100.00;103044.09;10217659;28;20506;-67
2023/03/01 02:52:24;;;;;;;25.58;16.15;;;;;;;-0.04;100.00;103044.47;10226145;28;20038;-67
2023/03/01 02:57:22;;;;;;;25.83;14.18;;;;;;;-0.10;100.00;103032.59;10218948;28;20148;-68
2023/03/01 03:02:35;;;;;;;23.55;14.15;;;;;;;-0.25;100.00;103029.97;10225867;28;20219;-68
2023/03/01 03:07:33;;;;;;;22.42;13.85;;;;;;;-0.38;100.00;103032.47;10226571;28;20636;-67
2023/03/01 03:12:30;;;;;;;25.10;15.23;;;;;;;-0.42;100.00;103031.19;10223430;28;20059;-67
2023/03/01 03:17:26;;;;;;;23.23;14.63;;;;;;;-0.36;100.00;103030.44;10224732;28;20045;-67
2023/03/01 03:22:23;;;;;;;32.30;14.63;;;;;;;-0.34;100.00;103023.03;10225323;28;20137;-66
2023/03/01 03:27:19;;;;;;;25.08;14.07;;;;;;;-0.17;100.00;103025.50;10216981;28;20042;-66
2023/03/01 03:32:16;;;;;;;25.30;14.52;;;;;;;-0.01;100.00;103027.94;10226561;28;20419;-67
2023/03/01 03:38:01;;;;;;;23.73;13.45;;;;;;;0.11;100.00;103021.03;10225556;28;20057;-67
2023/03/01 03:42:29;;;;;;;26.13;15.43;;;;;;;0.22;100.00;103006.25;10223653;28;20052;-68
2023/03/01 03:47:25;;;;;;;21.08;14.10;;;;;;;0.36;100.00;103008.03;10221194;28;20487;-68
2023/03/01 03:52:22;;;;;;;23.77;12.35;;;;;;;0.46;100.00;103005.00;10225681;28;20073;-66
2023/03/01 03:57:18;;;;;;;22.88;12.15;;;;;;;0.54;100.00;103004.88;10223852;28;20053;-68
2023/03/01 04:02:21;;;;;;;20.80;12.43;;;;;;;0.63;100.00;102998.31;10220856;28;20427;-66
2023/03/01 04:07:18;;;;;;;20.95;11.55;;;;;;;0.72;100.00;102992.78;10213824;28;20049;-67
2023/03/01 04:12:20;;;;;;;21.77;10.57;;;;;;;0.77;100.00;102993.06;10212115;28;20057;-67
2023/03/01 04:17:16;;;;;;;14.50;10.07;;;;;;;0.84;100.00;102983.16;10213829;28;20057;-67
2023/03/01 04:22:17;;;;;;;13.70;10.30;;;;;;;0.84;100.00;102988.53;10217356;28;20045;-67
2023/03/01 04:27:13;;;;;;;16.77;10.52;;;;;;;0.89;100.00;102986.06;10219233;28;20053;-69
2023/03/01 04:32:10;;;;;;;16.15;10.57;;;;;;;0.99;100.00;102988.41;10220240;28;20407;-68
2023/03/01 04:37:06;;;;;;;16.58;9.68;;;;;;;1.00;100.00;102987.41;10221700;28;20046;-68
2023/03/01 04:42:03;;;;;;;15.30;10.25;;;;;;;1.17;100.00;102986.03;10219593;28;20514;-69
2023/03/01 04:46:59;;;;;;;12.23;8.95;;;;;;;1.10;100.00;102981.66;10222886;28;20087;-69
2023/03/01 04:51:59;;;;;;;10.65;9.13;;;;;;;1.21;100.00;102983.78;10226889;28;20492;-69
2023/03/01 04:56:56;;;;;;;13.82;8.93;;;;;;;1.19;100.00;102985.84;10229305;28;20140;-69
2023/03/01 05:01:55;;;;;;;17.40;8.95;;;;;;;1.28;100.00;102981.94;10229996;28;20045;-69
2023/03/01 05:06:53;;;;;;;14.07;9.00;;;;;;;1.26;100.00;102981.31;10231073;28;20052;-69
2023/03/01 05:11:51;;;;;;;16.38;9.65;;;;;;;1.23;100.00;102966.38;10225486;28;20713;-69
2023/03/01 05:16:47;;;;;;;9.75;7.82;;;;;;;1.36;100.00;102960.22;10226352;28;20518;-68
2023/03/01 05:22:01;;;;;;;9.93;8.07;;;;;;;1.46;100.00;102954.44;10224961;28;20042;-69
2023/03/01 05:26:59;;;;;;;11.60;8.00;;;;;;;1.54;100.00;102975.00;10227353;28;20041;-69
2023/03/01 05:31:58;;;;;;;9.98;8.60;;;;;;;1.53;100.00;102976.03;10223361;28;20137;-68
2023/03/01 05:36:55;;;;;;;12.80;8.38;;;;;;;1.61;100.00;102970.47;10225425;28;20041;-69
2023/03/01 05:41:56;;;;;;;14.48;9.48;;;;;;;1.46;100.00;102959.81;10217706;28;20603;-69
2023/03/01 05:46:53;;;;;;;12.90;8.63;;;;;;;1.63;100.00;102953.06;10218377;28;20048;-67
2023/03/01 05:51:52;;;;;;;13.80;9.40;;;;;;;1.38;100.00;102939.28;10223669;28;20053;-67
2023/03/01 05:56:48;;;;;;;12.68;8.88;;;;;;;1.42;100.00;102937.84;10219178;28;20042;-69
2023/03/01 06:01:45;;;;;;;11.50;9.57;;;;;;;1.37;100.00;102923.28;10223497;28;20435;-69
2023/03/01 06:06:41;;;;;;;11.60;10.40;;;;;;;1.29;100.00;102937.78;10219789;28;20042;-68
2023/03/01 06:11:38;;;;;;;14.82;11.15;;;;;;;1.26;100.00;102940.88;10228398;28;20120;-68
2023/03/01 06:16:34;;;;;;;15.13;10.15;;;;;;;1.30;100.00;102939.47;10225810;28;20055;-68
2023/03/01 06:21:30;;;;;;;12.98;10.80;;;;;;;1.22;100.00;102934.22;10226789;28;20479;-69
2023/03/01 06:26:27;;;;;;;17.13;10.90;;;;;;;1.20;100.00;102939.00;10227222;28;20073;-68
2023/03/01 06:31:24;;;;;;;13.55;10.70;;;;;;;1.33;100.00;102933.66;10227953;28;20077;-68
2023/03/01 06:36:21;;;;;;;14.45;10.52;;;;;;;1.28;100.00;102941.53;10221364;28;20079;-68
2023/03/01 06:41:18;;;;;;;14.73;10.75;;;;;;;1.42;100.00;102945.94;10220282;28;20096;-68
2023/03/01 06:46:14;;;;;;;18.70;11.38;;;;;;;1.53;100.00;102944.50;10223757;28;20042;-68
2023/03/01 06:51:11;;;;;;;13.30;10.10;;;;;;;1.79;100.00;102953.72;10218551;28;20529;-67
2023/03/01 06:56:07;;;;;;;13.82;9.80;;;;;;;1.74;100.00;102951.63;10226692;28;20079;-67
2023/03/01 07:01:08;;;;;;;13.50;9.52;;;;;;;1.64;100.00;102957.41;10220339;28;20111;-68
2023/03/01 07:06:05;;;;;;;13.23;9.40;;;;;;;1.74;100.00;102948.94;10224600;28;20060;-68
2023/03/01 07:11:03;;;;;;;17.95;9.82;;;;;;;1.81;100.00;102941.69;10223073;28;20057;-68
2023/03/01 07:15:59;;;;;;;9.90;8.90;;;;;;;1.73;100.00;102939.16;10224036;28;20080;-69
2023/03/01 07:20:56;;;;;;;12.82;10.20;;;;;;;1.87;100.00;102926.53;10218825;28;20053;-69
2023/03/01 07:25:53;;;;;;;15.23;9.05;;;;;;;1.95;100.00;102925.50;10219077;28;20128;-69
2023/03/01 07:30:50;;;;;;;13.05;9.60;;;;;;;2.07;100.00;102923.88;10219689;28;20504;-69
2023/03/01 07:35:46;;;;;;;12.38;10.02;;;;;;;2.12;100.00;102926.78;10223020;28;20044;-69
2023/03/01 07:40:43;;;;;;;17.10;11.75;;;;;;;2.15;100.00;102929.06;10225830;28;20452;-67
2023/03/01 07:45:39;;;;;;;14.45;11.82;;;;;;;2.02;100.00;102926.34;10222492;28;20068;-67
2023/03/01 07:50:36;;;;;;;19.17;12.10;;;;;;;2.02;100.00;102931.72;10220573;28;20042;-67
2023/03/01 07:55:32;;;;;;;15.02;11.88;;;;;;;2.19;100.00;102927.59;10227744;28;20115;-67
2023/03/01 08:00:28;;;;;;;21.73;12.35;;;;;;;2.30;100.00;102929.69;10223789;28;20049;-69
2023/03/01 08:05:25;;;;;;;19.00;13.68;;;;;;;2.04;100.00;102929.66;10228586;28;20752;-68
2023/03/01 08:10:22;;;;;;;18.27;13.98;;;;;;;2.11;100.00;102946.69;10230850;28;20137;-66
2023/03/01 08:15:18;;;;;;;18.63;13.30;;;;;;;2.16;100.00;102940.66;10224264;28;20053;-68
2023/03/01 08:20:16;;;;;;;15.93;12.90;;;;;;;2.41;100.00;102947.09;10223833;28;20495;-69
2023/03/01 08:25:15;;;;;;;18.45;12.02;;;;;;;2.80;100.00;102945.41;10212708;28;20049;-70
2023/03/01 08:30:12;;;;;;;16.75;13.07;;;;;;;2.99;100.00;102942.88;10221367;28;20436;-69
2023/03/01 08:35:08;;;;;;;17.27;13.30;;;;;;;3.11;100.00;102938.47;10219107;28;20429;-69
2023/03/01 08:40:09;;;;;;;14.65;11.65;;;;;;;2.98;100.00;102933.94;10217238;28;20046;-68
2023/03/01 08:45:07;;;;;;;14.65;11.60;;;;;;;3.02;100.00;102940.59;10219951;28;20057;-68
2023/03/01 08:50:04;;;;;;;20.60;12.55;;;;;;;3.19;100.00;102937.41;10215241;28;20057;-68
2023/03/01 08:55:01;;;;;;;19.05;13.35;;;;;;;3.46;100.00;102941.66;10212785;28;20480;-68
2023/03/01 08:59:58;;;;;;;17.05;13.10;;;;;;;3.49;100.00;102946.63;10216441;28;20041;-68
2023/03/01 09:04:54;;;;;;;18.25;13.60;;;;;;;3.47;100.00;102947.91;10218959;28;20136;-68
2023/03/01 09:09:53;;;;;;;22.38;13.35;;;;;;;3.61;100.00;102943.25;10222666;28;20151;-68
2023/03/01 09:14:49;;;;;;;19.80;13.82;;;;;;;3.88;100.00;102947.47;10226901;28;20454;-68
2023/03/01 09:19:46;;;;;;;18.83;14.10;;;;;;;3.93;100.00;102942.22;10227964;28;20133;-66
2023/03/01 09:24:42;;;;;;;19.00;13.55;;;;;;;4.06;100.00;102948.59;10226677;28;20045;-66
2023/03/01 09:29:39;;;;;;;19.25;14.57;;;;;;;3.87;100.00;102951.19;10226178;28;20511;-66
2023/03/01 09:35:00;;;;;;;19.30;13.93;;;;;;;3.96;100.00;102952.59;10218423;28;20068;-65
2023/03/01 09:39:52;;;;;;;19.08;14.27;;;;;;;3.97;100.00;102954.28;10229103;28;20523;-65
2023/03/01 09:44:59;;;;;;;20.15;15.10;;;;;;;4.13;100.00;102954.78;10222748;28;20045;-66
2023/03/01 09:50:18;;;;;;;20.92;15.13;;;;;;;4.33;100.00;102946.50;10216591;28;20415;-66
2023/03/01 09:55:44;;;;;;;20.50;13.93;;;;;;;4.27;100.00;102940.09;10224749;28;20455;-66
2023/03/01 10:00:46;;;;;;;19.35;13.38;;;;;;;4.43;100.00;102954.94;10221223;28;20054;-66
2023/03/01 10:05:51;;;;;;;;;;;;;;;4.53;100.00;102949.06;10219382;28;20414;-66
2023/03/01 10:10:49;;;;;;;19.20;13.40;;;;;;;4.67;100.00;102939.75;10225117;28;19987;-66
2023/03/01 10:16:10;;;;;;;19.05;14.52;;;;;;;4.90;100.00;102939.09;10222797;28;20071;-66
2023/03/01 10:21:16;;;;;;;15.00;12.68;;;;;;;4.94;100.00;102936.75;10221904;28;20045;-66
2023/03/01 10:26:22;;;;;;;16.42;13.52;;;;;;;5.16;100.00;102943.38;10222693;28;20667;-66
2023/03/01 10:31:22;;;;;;;19.00;13.88;;;;;;;5.22;100.00;102931.63;10226080;28;20080;-66
2023/03/01 10:36:19;;;;;;;16.75;13.13;;;;;;;5.42;100.00;102931.34;10223093;28;20065;-66
2023/03/01 10:41:15;;;;;;;16.73;12.90;;;;;;;5.46;100.00;102927.13;10227271;28;20422;-66
2023/03/01 10:46:31;;;;;;;15.95;12.80;;;;;;;5.34;100.00;102928.13;10220528;28;20064;-66
2023/03/01 10:51:28;;;;;;;19.48;14.18;;;;;;;5.69;100.00;102931.84;10222387;28;20558;-66
2023/03/01 10:56:25;;;;;;;14.90;12.20;;;;;;;5.41;100.00;102931.59;10223065;28;20140;-66
2023/03/01 11:01:27;;;;;;;15.73;12.20;;;;;;;5.31;100.00;102928.59;10227095;28;20168;-66
2023/03/01 11:06:24;;;;;;;17.63;13.05;;;;;;;5.63;100.00;102916.47;10222660;28;20053;-67
2023/03/01 11:11:30;;;;;;;16.65;13.25;;;;;;;6.02;100.00;102914.25;10222374;28;20068;-66
2023/03/01 11:16:28;;;;;;;15.52;13.05;;;;;;;6.08;100.00;102897.03;10216041;28;20053;-67
2023/03/01 11:21:29;;;;;;;16.30;12.93;;;;;;;6.38;100.00;102901.50;10225426;28;20061;-66
2023/03/01 11:26:28;;;;;;;14.43;12.48;;;;;;;6.36;100.00;102903.66;10226207;28;20080;-66
2023/03/01 11:31:26;;;;;;;19.27;12.05;;;;;;;6.57;100.00;102904.09;10235548;28;20045;-66
2023/03/01 11:36:55;;;;;;;18.33;12.30;;;;;;;6.93;100.00;102898.38;10229475;28;20049;-66
2023/03/01 11:42:18;;;;;;;16.48;12.40;;;;;;;7.15;100.00;102889.59;10230645;28;20050;-67
2023/03/01 11:47:47;;;;;;;15.60;12.93;;;;;;;8.19;100.00;102882.97;10222821;28;20045;-68
2023/03/01 11:52:49;;;;;;;14.10;11.93;;;;;;;7.84;100.00;102878.59;10223096;28;20464;-67
2023/03/01 11:58:23;;;;;;;15.15;12.07;;;;;;;8.17;100.00;102875.06;10230827;28;20091;-68
2023/03/01 12:03:28;;;;;;;16.15;11.32;;;;;;;7.74;100.00;102871.09;10222140;28;20863;-67
2023/03/01 12:08:46;;;;;;;16.33;11.73;;;;;;;8.12;100.00;102861.38;10227538;28;20824;-66
2023/03/01 12:13:43;;;;;;;11.85;10.32;;;;;;;8.35;100.00;102862.25;10221451;28;20576;-66
2023/03/01 12:19:13;;;;;;;11.95;10.65;;;;;;;8.70;100.00;102858.38;10226822;28;20077;-66
2023/03/01 12:24:33;;;;;;;10.90;9.63;;;;;;;9.35;100.00;102852.09;10231096;28;20045;-67
2023/03/01 12:30:14;;;;;;;12.23;10.93;;;;;;;9.54;100.00;102843.50;10230171;28;20063;-67
2023/03/01 12:35:31;;;;;;;10.90;9.90;;;;;;;10.85;100.00;102832.91;10217698;28;20061;-67
2023/03/01 12:40:45;;;;;;;11.15;9.98;;;;;;;11.31;100.00;102822.09;10222649;28;20045;-68
2023/03/01 12:46:01;;;;;;;10.75;9.70;;;;;;;11.12;100.00;102814.41;10233150;28;20574;-67
2023/03/01 12:51:01;;;;;;;12.50;11.20;;;;;;;12.24;100.00;102812.78;10220373;28;20046;-67
2023/03/01 12:56:06;;;;;;;11.68;10.48;;;;;;;12.52;100.00;102807.75;10206235;28;20103;-66
2023/03/01 13:01:31;;;;;;;12.85;11.50;;;;;;;13.24;100.00;102791.72;10220783;28;20077;-67
2023/03/01 13:06:40;;;;;;;11.55;9.88;;;;;;;13.19;100.00;102789.84;10227811;28;20130;-66
2023/03/01 13:11:42;;;;;;;12.15;10.52;;;;;;;13.64;100.00;102785.09;10225576;28;20038;-66
2023/03/01 13:16:48;;;;;;;12.52;10.90;;;;;;;14.39;100.00;102772.81;10210843;28;20741;-66
2023/03/01 13:21:48;;;;;;;11.35;10.15;;;;;;;13.55;100.00;102778.59;10224218;28;20046;-68
2023/03/01 13:27:06;;;;;;;12.18;10.98;;;;;;;13.54;100.00;102771.47;10221765;28;20124;-66
2023/03/01 13:32:04;;;;;;;13.23;11.77;;;;;;;12.27;100.00;102784.78;10221496;28;20104;-66
2023/03/01 13:37:21;;;;;;;12.10;10.43;;;;;;;11.73;100.00;102768.97;10212872;28;20493;-65
2023/03/01 13:42:37;;;;;;;11.15;10.05;;;;;;;12.72;100.00;102766.50;10213009;28;20128;-68
2023/03/01 13:47:36;;;;;;;11.90;10.23;;;;;;;12.27;100.00;102762.84;10210916;28;20050;-68
2023/03/01 13:52:57;;;;;;;10.85;9.85;;;;;;;13.84;100.00;102755.81;10212102;28;20068;-68
2023/03/01 13:57:57;;;;;;;10.27;9.20;;;;;;;13.43;100.00;102761.66;10210114;28;20482;-68
2023/03/01 14:03:18;;;;;;;11.77;8.82;;;;;;;14.88;100.00;102760.63;10214583;28;20084;-66
2023/03/01 14:08:22;;;;;;;11.88;10.65;;;;;;;15.24;100.00;102760.06;10229367;28;20132;-66
2023/03/01 14:13:45;;;;;;;10.00;9.00;;;;;;;15.28;100.00;102739.06;10220061;28;20087;-66
2023/03/01 14:19:29;;;;;;;9.63;8.70;;;;;;;14.87;100.00;102725.91;10217063;28;20515;-67
2023/03/01 14:24:32;;;;;;;10.23;9.23;;;;;;;15.06;100.00;102725.09;10138136;28;20575;-66
2023/03/01 14:29:37;;;;;;;9.40;8.23;;;;;;;14.37;100.00;102725.50;10193754;28;20755;-67
2023/03/01 14:34:34;;;;;;;11.00;9.02;;;;;;;13.71;100.00;102718.00;10214727;28;20053;-67
2023/03/01 14:39:32;;;;;;;9.48;8.60;;;;;;;14.06;100.00;102709.38;10217974;28;20468;-67
2023/03/01 14:44:29;;;;;;;9.88;8.45;;;;;;;13.85;100.00;102707.94;10202065;28;20041;-66
2023/03/01 14:49:30;;;;;;;9.55;8.65;;;;;;;13.89;100.00;102714.50;10203135;28;20045;-67
2023/03/01 14:54:37;;;;;;;9.32;8.43;;;;;;;14.44;100.00;102697.63;10213550;28;20156;-67
2023/03/01 14:59:34;;;;;;;8.07;7.28;;;;;;;13.84;100.00;102684.31;10200014;28;20547;-67
2023/03/01 15:04:33;;;;;;;8.57;7.68;;;;;;;13.41;100.00;102675.94;10215478;28;20096;-68
2023/03/01 15:09:32;;;;;;;13.45;8.27;;;;;;;13.97;100.00;102672.63;10215228;28;20050;-67
2023/03/01 15:14:42;;;;;;;8.73;7.80;;;;;;;13.48;100.00;102681.91;10213961;28;20057;-67
2023/03/01 15:19:47;;;;;;;8.38;7.47;;;;;;;11.85;100.00;102672.75;10217507;28;20442;-67
2023/03/01 15:24:48;;;;;;;8.55;7.75;;;;;;;11.81;100.00;102672.47;10203591;28;20207;-68
2023/03/01 15:29:53;;;;;;;8.02;7.22;;;;;;;10.57;100.00;102664.59;10224620;28;20083;-67
2023/03/01 15:34:50;;;;;;;7.65;6.90;;;;;;;10.14;100.00;102667.41;10207040;28;20041;-67
2023/03/01 15:39:55;;;;;;;7.93;6.88;;;;;;;10.23;100.00;102671.25;10219031;28;20457;-68
2023/03/01 15:45:08;;;;;;;9.13;7.47;;;;;;;9.82;100.00;102671.09;10208612;28;20499;-67
2023/03/01 15:50:15;;;;;;;9.02;7.20;;;;;;;9.76;100.00;102676.78;10208416;28;20053;-67
2023/03/01 15:55:18;;;;;;;8.70;7.80;;;;;;;9.50;100.00;102667.63;10216572;28;20099;-67
2023/03/01 16:00:17;;;;;;;11.50;7.20;;;;;;;9.16;100.00;102667.91;10218071;28;20049;-67
2023/03/01 16:05:21;;;;;;;8.90;7.82;;;;;;;8.28;100.00;102662.63;10205936;28;20049;-67
2023/03/01 16:10:19;;;;;;;9.57;7.40;;;;;;;7.98;100.00;102677.53;10202700;28;20042;-67
2023/03/01 16:15:28;;;;;;;10.82;8.55;;;;;;;8.22;100.00;102662.59;10217845;28;20556;-67
2023/03/01 16:20:29;;;;;;;9.77;8.77;;;;;;;7.59;100.00;102677.53;10207611;28;20049;-67
2023/03/01 16:25:30;;;;;;;14.10;8.70;;;;;;;7.59;100.00;102674.81;10205579;28;20060;-67
2023/03/01 16:30:26;;;;;;;11.88;9.50;;;;;;;7.67;100.00;102668.94;10213586;28;20049;-67
2023/03/01 16:35:23;;;;;;;13.68;9.73;;;;;;;7.08;100.00;102671.31;10211424;28;20408;-67
2023/03/01 16:40:24;;;;;;;11.07;8.77;;;;;;;7.45;100.00;102660.72;10206629;28;20053;-68
2023/03/01 16:45:21;;;;;;;14.15;10.07;;;;;;;7.02;100.00;102667.66;10212009;28;20045;-68
2023/03/01 16:50:21;;;;;;;16.50;11.10;;;;;;;7.10;100.00;102671.84;10209712;28;20080;-67
2023/03/01 16:55:17;;;;;;;17.50;11.48;;;;;;;7.04;100.00;102670.97;10221279;28;20052;-67
2023/03/01 17:00:14;;;;;;;16.95;13.27;;;;;;;6.78;100.00;102672.41;10210996;28;20654;-69
2023/03/01 17:05:11;;;;;;;15.85;12.38;;;;;;;6.35;100.00;102679.19;10209481;28;20768;-67
2023/03/01 17:10:10;;;;;;;15.23;10.60;;;;;;;6.08;100.00;102696.03;10208177;28;20134;-68
2023/03/01 17:15:07;;;;;;;13.55;10.77;;;;;;;6.24;100.00;102693.63;10219828;28;20073;-66
2023/03/01 17:20:04;;;;;;;13.70;11.77;;;;;;;6.20;100.00;102689.78;10207483;28;20566;-66
2023/03/01 17:25:02;;;;;;;11.82;9.77;;;;;;;6.13;100.00;102697.19;10209962;28;20124;-66
2023/03/01 17:29:58;;;;;;;10.65;9.55;;;;;;;5.85;100.00;102701.47;10216176;28;20049;-66
2023/03/01 17:34:55;;;;;;;11.18;9.95;;;;;;;5.70;100.00;102694.63;10205114;28;20058;-66
2023/03/01 17:39:51;;;;;;;12.50;10.27;;;;;;;5.60;100.00;102705.25;10197105;28;20104;-66
2023/03/01 17:44:48;;;;;;;11.93;10.63;;;;;;;5.53;100.00;102709.97;10198557;28;20140;-66
2023/03/01 17:49:44;;;;;;;12.57;10.60;;;;;;;5.22;100.00;102720.06;10200218;28;20511;-66
2023/03/01 17:54:41;;;;;;;12.50;11.20;;;;;;;4.79;100.00;102729.25;10201441;28;20499;-66
2023/03/01 17:59:37;;;;;;;13.80;11.98;;;;;;;4.76;100.00;102727.00;10192991;28;20046;-66
2023/03/01 18:04:34;;;;;;;13.75;11.48;;;;;;;4.35;100.00;102727.75;10188960;28;20434;-66
2023/03/01 18:09:31;;;;;;;13.30;11.63;;;;;;;4.42;100.00;102726.59;10215198;28;20515;-66
2023/03/01 18:14:32;;;;;;;14.65;11.52;;;;;;;4.41;100.00;102730.38;10222551;28;20052;-66
2023/03/01 18:19:29;;;;;;;16.52;13.10;;;;;;;4.16;100.00;102733.16;10215391;28;20133;-66
2023/03/01 18:24:25;;;;;;;14.60;12.70;;;;;;;4.04;100.00;102734.97;10225321;28;20072;-66
2023/03/01 18:29:22;;;;;;;16.92;14.00;;;;;;;3.84;100.00;102728.91;10216323;28;20041;-66
2023/03/01 18:34:18;;;;;;;17.63;13.95;;;;;;;3.75;100.00;102739.19;10221491;28;20088;-66
2023/03/01 18:39:16;;;;;;;20.08;15.82;;;;;;;3.40;100.00;102747.81;10226838;28;20068;-66
2023/03/01 18:44:13;;;;;;;22.40;17.40;;;;;;;2.96;100.00;102757.66;10221540;28;20115;-66
2023/03/01 18:49:09;;;;;;;18.02;15.30;;;;;;;3.31;100.00;102762.66;10224579;28;20056;-66
2023/03/01 18:54:05;;;;;;;24.50;19.15;;;;;;;3.08;100.00;102758.63;10215506;28;20437;-66
2023/03/01 18:59:03;;;;;;;21.40;16.98;;;;;;;3.37;100.00;102756.38;10217790;28;20052;-66
2023/03/01 19:04:00;;;;;;;26.45;17.50;;;;;;;3.58;100.00;102768.69;10214484;28;20141;-66
2023/03/01 19:08:56;;;;;;;28.35;20.60;;;;;;;3.37;100.00;102778.00;10227179;28;20059;-66
2023/03/01 19:13:53;;;;;;;27.08;19.77;;;;;;;3.07;100.00;102767.78;10220525;28;20069;-66
2023/03/01 19:18:50;;;;;;;27.40;20.17;;;;;;;3.26;100.00;102776.00;10211926;28;20050;-66
2023/03/01 19:23:47;;;;;;;27.77;19.42;;;;;;;3.37;100.00;102780.72;10224487;28;20041;-66
2023/03/01 19:28:44;;;;;;;26.38;19.38;;;;;;;3.38;100.00;102779.66;10202409;28;20048;-66
2023/03/01 19:33:42;;;;;;;26.42;19.83;;;;;;;3.16;100.00;102777.31;10217609;28;20065;-66
2023/03/01 19:38:40;;;;;;;30.90;22.10;;;;;;;3.37;100.00;102783.41;10217866;28;20475;-66
2023/03/01 19:43:37;;;;;;;26.90;19.83;;;;;;;3.40;100.00;102796.47;10217259;28;20072;-65
2023/03/01 19:48:33;;;;;;;28.85;20.02;;;;;;;3.55;100.00;102786.19;10231255;28;20644;-66
2023/03/01 19:53:30;;;;;;;27.05;19.33;;;;;;;3.62;100.00;102790.69;10231501;28;20042;-66
2023/03/01 19:58:28;;;;;;;28.83;21.35;;;;;;;3.53;100.00;102804.50;10226664;28;20569;-66
2023/03/01 20:03:26;;;;;;;27.48;19.55;;;;;;;3.56;100.00;102804.06;10227969;28;20084;-65
2023/03/01 20:08:23;;;;;;;26.40;19.45;;;;;;;3.30;100.00;102794.28;10222532;28;20073;-65
2023/03/01 20:13:20;;;;;;;26.40;19.77;;;;;;;3.35;100.00;102801.72;10217103;28;20042;-65
2023/03/01 20:18:16;;;;;;;25.83;18.48;;;;;;;3.37;100.00;102799.63;10220394;28;20049;-65
2023/03/01 20:23:13;;;;;;;26.48;18.95;;;;;;;3.54;100.00;102795.34;10234116;28;20065;-65
2023/03/01 20:28:09;;;;;;;24.60;19.40;;;;;;;3.52;100.00;102789.31;10225895;28;20124;-66
2023/03/01 20:33:06;;;;;;;27.38;20.55;;;;;;;3.61;100.00;102789.88;10225885;28;20049;-66
2023/03/01 20:38:02;;;;;;;29.55;22.08;;;;;;;3.59;100.00;102787.38;10228215;28;20064;-66
2023/03/01 20:42:59;;;;;;;26.20;19.05;;;;;;;3.66;100.00;102781.94;10225163;28;20054;-65
2023/03/01 20:47:56;;;;;;;27.13;20.63;;;;;;;3.61;100.00;102794.47;10230168;28;20042;-66
2023/03/01 20:52:52;;;;;;;28.25;20.75;;;;;;;3.28;100.00;102801.75;10231200;28;20072;-65
2023/03/01 20:57:49;;;;;;;24.90;18.67;;;;;;;3.41;100.00;102800.84;10216298;28;20518;-66
2023/03/01 21:02:45;;;;;;;29.10;20.25;;;;;;;3.34;100.00;102802.75;10233785;28;20511;-66
2023/03/01 21:07:41;;;;;;;27.73;19.92;;;;;;;3.15;100.00;102801.84;10216834;28;20121;-67
2023/03/01 21:12:38;;;;;;;27.13;19.58;;;;;;;3.30;100.00;102798.84;10232418;28;20037;-66
2023/03/01 21:17:34;;;;;;;34.95;23.55;;;;;;;2.72;100.00;102797.91;10208933;28;20061;-66
2023/03/01 21:22:33;;;;;;;31.30;20.35;;;;;;;2.94;100.00;102808.41;10214648;28;20046;-65
2023/03/01 21:27:35;;;;;;;27.77;18.70;;;;;;;3.21;100.00;102792.88;10211885;28;20050;-66
2023/03/01 21:32:31;;;;;;;27.90;19.45;;;;;;;3.25;100.00;102790.53;10203193;28;20124;-66
2023/03/01 21:37:28;;;;;;;26.77;19.58;;;;;;;3.45;100.00;102802.06;10211824;28;20132;-68
2023/03/01 21:42:24;;;;;;;27.92;19.80;;;;;;;3.20;100.00;102795.78;10209934;28;20072;-68
2023/03/01 21:47:21;;;;;;;26.77;18.70;;;;;;;3.25;100.00;102795.94;10215169;28;20567;-69
2023/03/01 21:52:17;;;;;;;25.25;19.00;;;;;;;3.08;100.00;102791.06;10206017;28;20073;-67
2023/03/01 21:57:14;;;;;;;25.52;18.65;;;;;;;2.94;100.00;102800.28;10217597;28;20439;-67
2023/03/01 22:02:13;;;;;;;31.38;21.48;;;;;;;2.78;100.00;102795.38;10225448;28;20061;-67
2023/03/01 22:07:09;;;;;;;29.02;20.33;;;;;;;2.61;100.00;102795.84;10209879;28;20073;-68
2023/03/01 22:12:06;;;;;;;26.83;19.08;;;;;;;2.28;100.00;102813.00;10208694;28;20034;-66
2023/03/01 22:17:02;;;;;;;26.52;17.58;;;;;;;2.73;100.00;102815.75;10211295;28;20042;-68
2023/03/01 22:21:59;;;;;;;26.35;17.85;;;;;;;2.74;100.00;102808.50;10208493;28;20148;-68
2023/03/01 22:26:55;;;;;;;27.25;20.15;;;;;;;2.61;100.00;102801.25;10216829;28;20132;-66
2023/03/01 22:31:53;;;;;;;25.42;17.33;;;;;;;2.73;100.00;102799.53;10227907;28;20041;-67